sensor_id;sensor_type;location;lat;lon;timestamp;pressure;altitude;pressure_sealevel;temperature;humidity
65872;BME280;52653;50.080;21.992;2022-10-18T00:00:28;100349.46;;;13.69;70.74
65872;BME280;52653;50.080;21.992;2022-10-18T00:03:20;100347.20;;;13.63;70.83
65872;BME280;52653;50.080;21.992;2022-10-18T00:05:52;100345.60;;;13.58;70.99
65872;BME280;52653;50.080;21.992;2022-10-18T00:08:25;100343.85;;;13.54;70.99
65872;BME280;52653;50.080;21.992;2022-10-18T00:10:57;100340.52;;;13.52;71.20
65872;BME280;52653;50.080;21.992;2022-10-18T00:13:28;100338.23;;;13.50;71.05
65872;BME280;52653;50.080;21.992;2022-10-18T00:16:02;100337.52;;;13.49;71.21
65872;BME280;52653;50.080;21.992;2022-10-18T00:18:34;100335.75;;;13.46;71.16
65872;BME280;52653;50.080;21.992;2022-10-18T00:21:09;100335.05;;;13.43;71.31
65872;BME280;52653;50.080;21.992;2022-10-18T00:23:44;100329.77;;;13.39;71.44
65872;BME280;52653;50.080;21.992;2022-10-18T00:26:19;100330.31;;;13.35;71.59
65872;BME280;52653;50.080;21.992;2022-10-18T00:28:53;100330.83;;;13.31;71.60
65872;BME280;52653;50.080;21.992;2022-10-18T00:31:27;100325.56;;;13.25;71.75
65872;BME280;52653;50.080;21.992;2022-10-18T00:34:01;100323.98;;;13.21;71.76
65872;BME280;52653;50.080;21.992;2022-10-18T00:36:33;100322.53;;;13.17;71.98
65872;BME280;52653;50.080;21.992;2022-10-18T00:39:07;100321.65;;;13.16;71.91
65872;BME280;52653;50.080;21.992;2022-10-18T00:41:39;100319.18;;;13.15;71.96
65872;BME280;52653;50.080;21.992;2022-10-18T00:47:14;100316.02;;;13.13;72.06
65872;BME280;52653;50.080;21.992;2022-10-18T00:49:50;100310.91;;;13.09;72.18
65872;BME280;52653;50.080;21.992;2022-10-18T00:52:28;100312.31;;;13.06;72.34
65872;BME280;52653;50.080;21.992;2022-10-18T00:55:04;100310.91;;;13.01;72.38
65872;BME280;52653;50.080;21.992;2022-10-18T00:57:36;100311.08;;;12.96;72.46
65872;BME280;52653;50.080;21.992;2022-10-18T01:00:10;100311.78;;;12.91;72.50
65872;BME280;52653;50.080;21.992;2022-10-18T01:02:44;100305.28;;;12.86;72.55
65872;BME280;52653;50.080;21.992;2022-10-18T01:05:18;100303.15;;;12.83;72.64
65872;BME280;52653;50.080;21.992;2022-10-18T01:08:10;100299.27;;;12.82;72.80
65872;BME280;52653;50.080;21.992;2022-10-18T01:10:53;100298.55;;;12.81;72.93
65872;BME280;52653;50.080;21.992;2022-10-18T01:13:38;100294.16;;;12.80;72.90
65872;BME280;52653;50.080;21.992;2022-10-18T01:16:18;100290.48;;;12.76;73.06
65872;BME280;52653;50.080;21.992;2022-10-18T01:18:58;100289.77;;;12.71;73.14
65872;BME280;52653;50.080;21.992;2022-10-18T01:21:38;100287.64;;;12.64;73.22
65872;BME280;52653;50.080;21.992;2022-10-18T01:24:45;100284.63;;;12.55;73.39
65872;BME280;52653;50.080;21.992;2022-10-18T01:27:34;100282.33;;;12.47;73.63
65872;BME280;52653;50.080;21.992;2022-10-18T01:30:38;100281.08;;;12.42;73.85
65872;BME280;52653;50.080;21.992;2022-10-18T01:33:18;100278.27;;;12.40;74.19
65872;BME280;52653;50.080;21.992;2022-10-18T01:35:53;100275.98;;;12.41;74.37
65872;BME280;52653;50.080;21.992;2022-10-18T01:38:30;100270.00;;;12.43;74.43
65872;BME280;52653;50.080;21.992;2022-10-18T01:41:04;100266.15;;;12.46;74.56
65872;BME280;52653;50.080;21.992;2022-10-18T01:43:45;100264.21;;;12.50;74.50
65872;BME280;52653;50.080;21.992;2022-10-18T01:46:22;100265.09;;;12.52;74.69
65872;BME280;52653;50.080;21.992;2022-10-18T01:48:55;100266.33;;;12.53;74.52
65872;BME280;52653;50.080;21.992;2022-10-18T01:51:29;100264.39;;;12.53;74.66
65872;BME280;52653;50.080;21.992;2022-10-18T01:54:02;100259.98;;;12.54;74.65
65872;BME280;52653;50.080;21.992;2022-10-18T01:56:44;100254.17;;;12.56;74.51
65872;BME280;52653;50.080;21.992;2022-10-18T01:59:36;100254.20;;;12.61;74.47
65872;BME280;52653;50.080;21.992;2022-10-18T02:02:20;100251.92;;;12.70;74.55
65872;BME280;52653;50.080;21.992;2022-10-18T02:05:02;100249.09;;;12.80;74.13
65872;BME280;52653;50.080;21.992;2022-10-18T02:07:43;100248.20;;;12.92;74.08
65872;BME280;52653;50.080;21.992;2022-10-18T02:10:40;100246.10;;;13.00;73.71
65872;BME280;52653;50.080;21.992;2022-10-18T02:13:16;100242.20;;;13.05;73.48
65872;BME280;52653;50.080;21.992;2022-10-18T02:15:52;100241.15;;;13.07;73.29
65872;BME280;52653;50.080;21.992;2022-10-18T02:18:31;100239.55;;;13.08;73.17
65872;BME280;52653;50.080;21.992;2022-10-18T02:21:09;100234.80;;;13.08;73.10
65872;BME280;52653;50.080;21.992;2022-10-18T02:23:43;100233.22;;;13.07;73.16
65872;BME280;52653;50.080;21.992;2022-10-18T02:26:16;100232.52;;;13.07;73.09
65872;BME280;52653;50.080;21.992;2022-10-18T02:28:48;100231.29;;;13.09;73.06
65872;BME280;52653;50.080;21.992;2022-10-18T02:31:23;100223.20;;;13.11;72.91
65872;BME280;52653;50.080;21.992;2022-10-18T02:33:59;100227.05;;;13.17;72.71
65872;BME280;52653;50.080;21.992;2022-10-18T02:36:34;100222.67;;;13.21;72.61
65872;BME280;52653;50.080;21.992;2022-10-18T02:39:12;100219.33;;;13.23;72.50
65872;BME280;52653;50.080;21.992;2022-10-18T02:41:45;100220.39;;;13.24;72.42
65872;BME280;52653;50.080;21.992;2022-10-18T02:44:17;100221.27;;;13.22;72.37
65872;BME280;52653;50.080;21.992;2022-10-18T02:46:49;100219.32;;;13.20;72.41
65872;BME280;52653;50.080;21.992;2022-10-18T02:49:21;100227.93;;;13.18;72.39
65872;BME280;52653;50.080;21.992;2022-10-18T02:51:53;100227.94;;;13.14;72.47
65872;BME280;52653;50.080;21.992;2022-10-18T02:54:25;100227.59;;;13.12;72.48
65872;BME280;52653;50.080;21.992;2022-10-18T02:56:57;100227.42;;;13.11;72.54
65872;BME280;52653;50.080;21.992;2022-10-18T02:59:29;100225.66;;;13.11;72.62
65872;BME280;52653;50.080;21.992;2022-10-18T03:02:00;100225.12;;;13.14;72.55
65872;BME280;52653;50.080;21.992;2022-10-18T03:07:03;100224.40;;;13.17;72.31
65872;BME280;52653;50.080;21.992;2022-10-18T03:09:35;100226.88;;;13.17;72.44
65872;BME280;52653;50.080;21.992;2022-10-18T03:12:07;100223.19;;;13.13;72.42
65872;BME280;52653;50.080;21.992;2022-10-18T03:14:39;100223.20;;;13.11;72.47
65872;BME280;52653;50.080;21.992;2022-10-18T03:17:10;100222.83;;;13.07;72.46
65872;BME280;52653;50.080;21.992;2022-10-18T03:19:42;100221.96;;;13.04;72.61
65872;BME280;52653;50.080;21.992;2022-10-18T03:22:14;100225.32;;;13.01;72.68
65872;BME280;52653;50.080;21.992;2022-10-18T03:24:46;100228.30;;;13.02;72.65
65872;BME280;52653;50.080;21.992;2022-10-18T03:27:18;100227.42;;;13.02;72.70
65872;BME280;52653;50.080;21.992;2022-10-18T03:29:49;100228.83;;;13.04;72.74
65872;BME280;52653;50.080;21.992;2022-10-18T03:32:21;100231.99;;;13.04;72.68
65872;BME280;52653;50.080;21.992;2022-10-18T03:34:53;100235.34;;;13.04;72.70
65872;BME280;52653;50.080;21.992;2022-10-18T03:37:24;100235.70;;;13.03;72.69
65872;BME280;52653;50.080;21.992;2022-10-18T03:39:56;100239.59;;;12.98;72.78
65872;BME280;52653;50.080;21.992;2022-10-18T03:42:28;100239.92;;;12.93;72.90
65872;BME280;52653;50.080;21.992;2022-10-18T03:45:00;100242.23;;;12.89;72.92
65872;BME280;52653;50.080;21.992;2022-10-18T03:47:32;100241.54;;;12.84;72.98
65872;BME280;52653;50.080;21.992;2022-10-18T03:50:05;100246.44;;;12.80;73.15
65872;BME280;52653;50.080;21.992;2022-10-18T03:52:36;100243.82;;;12.77;73.19
65872;BME280;52653;50.080;21.992;2022-10-18T03:55:09;100243.83;;;12.75;73.21
65872;BME280;52653;50.080;21.992;2022-10-18T03:57:41;100242.95;;;12.73;73.18
65872;BME280;52653;50.080;21.992;2022-10-18T04:00:13;100243.48;;;12.72;73.26
65872;BME280;52653;50.080;21.992;2022-10-18T04:02:45;100245.39;;;12.70;73.31
65872;BME280;52653;50.080;21.992;2022-10-18T04:05:24;100245.92;;;12.67;73.47
65872;BME280;52653;50.080;21.992;2022-10-18T04:07:57;100243.83;;;12.60;73.60
65872;BME280;52653;50.080;21.992;2022-10-18T04:10:29;100240.98;;;12.55;73.67
65872;BME280;52653;50.080;21.992;2022-10-18T04:13:01;100240.29;;;12.47;73.76
65872;BME280;52653;50.080;21.992;2022-10-18T04:15:33;100240.97;;;12.41;73.88
65872;BME280;52653;50.080;21.992;2022-10-18T04:18:05;100244.66;;;12.36;74.13
65872;BME280;52653;50.080;21.992;2022-10-18T04:20:36;100247.30;;;12.34;74.23
65872;BME280;52653;50.080;21.992;2022-10-18T04:23:08;100245.38;;;12.33;74.26
65872;BME280;52653;50.080;21.992;2022-10-18T04:25:40;100258.57;;;12.33;74.21
65872;BME280;52653;50.080;21.992;2022-10-18T04:28:13;100255.40;;;12.33;74.29
65872;BME280;52653;50.080;21.992;2022-10-18T04:30:50;100254.48;;;12.31;74.30
65872;BME280;52653;50.080;21.992;2022-10-18T04:33:21;100256.42;;;12.28;74.31
65872;BME280;52653;50.080;21.992;2022-10-18T04:35:53;100252.02;;;12.25;74.55
65872;BME280;52653;50.080;21.992;2022-10-18T04:38:25;100251.85;;;12.19;74.53
65872;BME280;52653;50.080;21.992;2022-10-18T04:40:57;100251.46;;;12.12;74.68
65872;BME280;52653;50.080;21.992;2022-10-18T04:43:29;100248.66;;;12.07;74.92
65872;BME280;52653;50.080;21.992;2022-10-18T04:46:01;100251.61;;;12.06;75.00
65872;BME280;52653;50.080;21.992;2022-10-18T04:48:32;100246.70;;;12.07;75.17
65872;BME280;52653;50.080;21.992;2022-10-18T04:51:04;100244.61;;;12.09;75.38
65872;BME280;52653;50.080;21.992;2022-10-18T04:53:36;100244.08;;;12.11;75.41
65872;BME280;52653;50.080;21.992;2022-10-18T04:56:08;100236.88;;;12.15;75.49
65872;BME280;52653;50.080;21.992;2022-10-18T04:58:40;100235.84;;;12.20;75.60
65872;BME280;52653;50.080;21.992;2022-10-18T05:01:12;100235.49;;;12.25;75.56
65872;BME280;52653;50.080;21.992;2022-10-18T05:03:44;100230.56;;;12.30;75.71
65872;BME280;52653;50.080;21.992;2022-10-18T05:06:16;100231.83;;;12.35;75.65
65872;BME280;52653;50.080;21.992;2022-10-18T05:08:48;100230.59;;;12.41;75.52
65872;BME280;52653;50.080;21.992;2022-10-18T05:11:19;100231.48;;;12.46;75.46
65872;BME280;52653;50.080;21.992;2022-10-18T05:13:51;100235.89;;;12.55;75.34
65872;BME280;52653;50.080;21.992;2022-10-18T05:16:24;100233.41;;;12.66;75.07
65872;BME280;52653;50.080;21.992;2022-10-18T05:18:57;100231.32;;;12.77;74.75
65872;BME280;52653;50.080;21.992;2022-10-18T05:21:29;100231.66;;;12.88;74.43
65872;BME280;52653;50.080;21.992;2022-10-18T05:24:01;100233.06;;;13.00;74.13
65872;BME280;52653;50.080;21.992;2022-10-18T05:26:32;100233.05;;;13.10;73.82
65872;BME280;52653;50.080;21.992;2022-10-18T05:29:04;100237.98;;;13.17;73.46
65872;BME280;52653;50.080;21.992;2022-10-18T05:31:37;100242.23;;;13.25;73.26
65872;BME280;52653;50.080;21.992;2022-10-18T05:34:08;100247.84;;;13.30;73.06
65872;BME280;52653;50.080;21.992;2022-10-18T05:36:40;100245.91;;;13.35;72.83
65872;BME280;52653;50.080;21.992;2022-10-18T05:39:12;100244.84;;;13.38;72.64
65872;BME280;52653;50.080;21.992;2022-10-18T05:41:46;100243.77;;;13.41;72.59
65872;BME280;52653;50.080;21.992;2022-10-18T05:44:18;100246.57;;;13.46;72.50
65872;BME280;52653;50.080;21.992;2022-10-18T05:46:50;100246.38;;;13.52;72.14
65872;BME280;52653;50.080;21.992;2022-10-18T05:49:22;100246.19;;;13.58;71.95
65872;BME280;52653;50.080;21.992;2022-10-18T05:51:54;100244.92;;;13.66;71.83
65872;BME280;52653;50.080;21.992;2022-10-18T05:54:26;100242.96;;;13.73;71.53
65872;BME280;52653;50.080;21.992;2022-10-18T05:56:59;100247.69;;;13.79;71.45
65872;BME280;52653;50.080;21.992;2022-10-18T05:59:30;100248.55;;;13.84;71.13
65872;BME280;52653;50.080;21.992;2022-10-18T06:02:02;100248.37;;;13.89;71.04
65872;BME280;52653;50.080;21.992;2022-10-18T06:04:34;100249.91;;;13.94;70.90
65872;BME280;52653;50.080;21.992;2022-10-18T06:07:09;100252.55;;;13.99;70.65
65872;BME280;52653;50.080;21.992;2022-10-18T06:09:41;100258.86;;;14.05;70.63
65872;BME280;52653;50.080;21.992;2022-10-18T06:12:13;100261.31;;;14.10;70.48
65872;BME280;52653;50.080;21.992;2022-10-18T06:14:45;100264.11;;;14.16;70.13
65872;BME280;52653;50.080;21.992;2022-10-18T06:17:18;100271.83;;;14.26;69.91
65872;BME280;52653;50.080;21.992;2022-10-18T06:19:50;100269.27;;;14.37;69.65
65872;BME280;52653;50.080;21.992;2022-10-18T06:22:23;100270.46;;;14.51;69.23
65872;BME280;52653;50.080;21.992;2022-10-18T06:24:55;100270.72;;;14.64;68.92
65872;BME280;52653;50.080;21.992;2022-10-18T06:27:27;100269.39;;;14.77;68.37
65872;BME280;52653;50.080;21.992;2022-10-18T06:30:01;100271.60;;;14.88;67.88
65872;BME280;52653;50.080;21.992;2022-10-18T06:32:33;100268.86;;;14.98;67.54
65872;BME280;52653;50.080;21.992;2022-10-18T06:35:06;100274.28;;;15.06;67.11
65872;BME280;52653;50.080;21.992;2022-10-18T06:37:38;100273.51;;;15.13;66.74
65872;BME280;52653;50.080;21.992;2022-10-18T06:40:11;100270.59;;;15.22;66.82
65872;BME280;52653;50.080;21.992;2022-10-18T06:42:43;100272.11;;;15.30;66.11
65872;BME280;52653;50.080;21.992;2022-10-18T06:45:31;100272.35;;;15.41;65.88
65872;BME280;52653;50.080;21.992;2022-10-18T06:48:03;100273.83;;;15.51;65.63
65872;BME280;52653;50.080;21.992;2022-10-18T06:50:35;100274.64;;;15.61;65.43
65872;BME280;52653;50.080;21.992;2022-10-18T06:53:07;100274.35;;;15.71;65.32
65872;BME280;52653;50.080;21.992;2022-10-18T06:55:39;100271.04;;;15.82;64.83
65872;BME280;52653;50.080;21.992;2022-10-18T06:58:11;100267.58;;;15.91;64.21
65872;BME280;52653;50.080;21.992;2022-10-18T07:00:43;100271.55;;;15.98;64.13
65872;BME280;52653;50.080;21.992;2022-10-18T07:03:16;100271.30;;;16.05;63.52
65872;BME280;52653;50.080;21.992;2022-10-18T07:05:48;100269.96;;;16.11;62.99
65872;BME280;52653;50.080;21.992;2022-10-18T07:08:20;100265.64;;;16.18;63.00
65872;BME280;52653;50.080;21.992;2022-10-18T07:10:53;100271.00;;;16.26;63.08
65872;BME280;52653;50.080;21.992;2022-10-18T07:13:26;100269.30;;;16.34;62.94
65872;BME280;52653;50.080;21.992;2022-10-18T07:16:04;100269.05;;;16.39;62.13
65872;BME280;52653;50.080;21.992;2022-10-18T07:18:38;100262.41;;;16.45;62.09
65872;BME280;52653;50.080;21.992;2022-10-18T07:21:12;100264.79;;;16.53;62.07
65872;BME280;52653;50.080;21.992;2022-10-18T07:23:45;100262.35;;;16.61;62.02
65872;BME280;52653;50.080;21.992;2022-10-18T07:26:19;100257.34;;;16.65;61.24
65872;BME280;52653;50.080;21.992;2022-10-18T07:28:53;100260.66;;;16.70;60.78
65872;BME280;52653;50.080;21.992;2022-10-18T07:31:26;100262.13;;;16.78;61.00
65872;BME280;52653;50.080;21.992;2022-10-18T07:33:58;100263.59;;;16.85;60.39
65872;BME280;52653;50.080;21.992;2022-10-18T07:36:31;100257.81;;;16.92;60.52
65872;BME280;52653;50.080;21.992;2022-10-18T07:39:03;100256.95;;;17.00;60.21
65872;BME280;52653;50.080;21.992;2022-10-18T07:41:35;100254.83;;;17.10;60.20
65872;BME280;52653;50.080;21.992;2022-10-18T07:44:07;100254.51;;;17.19;59.86
65872;BME280;52653;50.080;21.992;2022-10-18T07:46:40;100252.39;;;17.29;59.98
65872;BME280;52653;50.080;21.992;2022-10-18T07:49:13;100253.63;;;17.38;59.24
65872;BME280;52653;50.080;21.992;2022-10-18T07:51:44;100249.73;;;17.47;59.15
65872;BME280;52653;50.080;21.992;2022-10-18T07:54:16;100250.98;;;17.56;59.44
65872;BME280;52653;50.080;21.992;2022-10-18T07:56:48;100251.71;;;17.63;58.46
65872;BME280;52653;50.080;21.992;2022-10-18T07:59:20;100250.23;;;17.68;57.95
65872;BME280;52653;50.080;21.992;2022-10-18T08:01:53;100251.35;;;17.75;58.08
65872;BME280;52653;50.080;21.992;2022-10-18T08:04:25;100253.89;;;17.81;57.77
65872;BME280;52653;50.080;21.992;2022-10-18T08:06:57;100253.02;;;17.88;57.86
65872;BME280;52653;50.080;21.992;2022-10-18T08:09:28;100258.55;;;17.96;57.62
65872;BME280;52653;50.080;21.992;2022-10-18T08:12:00;100254.63;;;18.05;57.37
65872;BME280;52653;50.080;21.992;2022-10-18T08:14:34;100254.63;;;18.13;57.48
65872;BME280;52653;50.080;21.992;2022-10-18T08:17:06;100243.45;;;18.20;57.15
65872;BME280;52653;50.080;21.992;2022-10-18T08:19:37;100239.30;;;18.32;57.42
65872;BME280;52653;50.080;21.992;2022-10-18T08:22:27;100241.02;;;18.42;56.63
65872;BME280;52653;50.080;21.992;2022-10-18T08:24:59;100235.67;;;18.49;56.48
65872;BME280;52653;50.080;21.992;2022-10-18T08:27:31;100241.07;;;18.54;56.11
65872;BME280;52653;50.080;21.992;2022-10-18T08:30:04;100236.38;;;18.58;55.85
65872;BME280;52653;50.080;21.992;2022-10-18T08:32:36;100241.77;;;18.64;55.95
65872;BME280;52653;50.080;21.992;2022-10-18T08:35:08;100237.19;;;18.70;55.62
65872;BME280;52653;50.080;21.992;2022-10-18T08:37:40;100239.52;;;18.76;55.61
65872;BME280;52653;50.080;21.992;2022-10-18T08:40:14;100235.16;;;18.80;55.56
65872;BME280;52653;50.080;21.992;2022-10-18T08:42:59;100228.63;;;18.85;55.34
65872;BME280;52653;50.080;21.992;2022-10-18T08:45:36;100228.19;;;18.95;55.73
65872;BME280;52653;50.080;21.992;2022-10-18T08:48:20;100226.17;;;19.04;55.51
65872;BME280;52653;50.080;21.992;2022-10-18T08:50:54;100225.13;;;19.11;55.24
65872;BME280;52653;50.080;21.992;2022-10-18T08:53:32;100224.27;;;19.17;54.97
65872;BME280;52653;50.080;21.992;2022-10-18T08:56:12;100216.54;;;19.26;55.26
65872;BME280;52653;50.080;21.992;2022-10-18T08:58:45;100207.69;;;19.37;55.30
65872;BME280;52653;50.080;21.992;2022-10-18T09:01:26;100203.66;;;19.48;54.88
65872;BME280;52653;50.080;21.992;2022-10-18T09:04:14;100200.64;;;19.55;54.59
65872;BME280;52653;50.080;21.992;2022-10-18T09:06:56;100199.48;;;19.64;54.75
65872;BME280;52653;50.080;21.992;2022-10-18T09:09:38;100200.44;;;19.74;54.60
65872;BME280;52653;50.080;21.992;2022-10-18T09:12:33;100194.86;;;19.82;54.09
65872;BME280;52653;50.080;21.992;2022-10-18T09:15:17;100195.00;;;19.83;53.55
65872;BME280;52653;50.080;21.992;2022-10-18T09:18:02;100188.09;;;19.82;53.26
65872;BME280;52653;50.080;21.992;2022-10-18T09:20:48;100187.40;;;19.76;52.56
65872;BME280;52653;50.080;21.992;2022-10-18T09:23:23;100181.92;;;19.75;53.34
65872;BME280;52653;50.080;21.992;2022-10-18T09:26:05;100179.08;;;19.80;53.98
65872;BME280;52653;50.080;21.992;2022-10-18T09:28:44;100174.95;;;19.93;54.33
65872;BME280;52653;50.080;21.992;2022-10-18T09:31:24;100174.30;;;20.02;53.94
65872;BME280;52653;50.080;21.992;2022-10-18T09:34:01;100167.11;;;20.10;53.08
65872;BME280;52653;50.080;21.992;2022-10-18T09:36:37;100168.59;;;20.14;52.71
65872;BME280;52653;50.080;21.992;2022-10-18T09:39:13;100169.38;;;20.17;52.50
65872;BME280;52653;50.080;21.992;2022-10-18T09:41:48;100163.41;;;20.26;53.30
65872;BME280;52653;50.080;21.992;2022-10-18T09:44:24;100161.40;;;20.33;52.63
65872;BME280;52653;50.080;21.992;2022-10-18T09:47:00;100153.35;;;20.40;52.55
65872;BME280;52653;50.080;21.992;2022-10-18T09:49:37;100152.35;;;20.43;51.52
65872;BME280;52653;50.080;21.992;2022-10-18T09:52:17;100143.33;;;20.47;51.93
65872;BME280;52653;50.080;21.992;2022-10-18T09:54:54;100141.77;;;20.51;51.56
65872;BME280;52653;50.080;21.992;2022-10-18T09:57:32;100140.41;;;20.49;51.95
65872;BME280;52653;50.080;21.992;2022-10-18T10:00:13;100138.02;;;20.46;51.32
65872;BME280;52653;50.080;21.992;2022-10-18T10:02:45;100129.17;;;20.43;52.11
65872;BME280;52653;50.080;21.992;2022-10-18T10:05:17;100119.35;;;20.44;51.77
65872;BME280;52653;50.080;21.992;2022-10-18T10:07:49;100119.77;;;20.47;52.38
65872;BME280;52653;50.080;21.992;2022-10-18T10:10:29;100112.59;;;20.49;51.55
65872;BME280;52653;50.080;21.992;2022-10-18T10:13:06;100107.89;;;20.46;51.09
65872;BME280;52653;50.080;21.992;2022-10-18T10:15:37;100099.96;;;20.49;51.72
65872;BME280;52653;50.080;21.992;2022-10-18T10:18:20;100097.80;;;20.54;51.95
65872;BME280;52653;50.080;21.992;2022-10-18T10:20:54;100090.00;;;20.59;51.13
65872;BME280;52653;50.080;21.992;2022-10-18T10:23:28;100084.92;;;20.62;50.91
65872;BME280;52653;50.080;21.992;2022-10-18T10:26:03;100079.04;;;20.62;50.22
65872;BME280;52653;50.080;21.992;2022-10-18T10:28:41;100074.71;;;20.62;50.51
65872;BME280;52653;50.080;21.992;2022-10-18T10:31:27;100076.56;;;20.71;50.85
65872;BME280;52653;50.080;21.992;2022-10-18T10:34:03;100069.89;;;20.78;50.31
65872;BME280;52653;50.080;21.992;2022-10-18T10:36:46;100070.08;;;20.82;50.51
65872;BME280;52653;50.080;21.992;2022-10-18T10:39:20;100060.13;;;20.87;49.88
65872;BME280;52653;50.080;21.992;2022-10-18T10:41:54;100055.27;;;20.88;50.11
65872;BME280;52653;50.080;21.992;2022-10-18T10:44:29;100054.45;;;20.91;49.64
65872;BME280;52653;50.080;21.992;2022-10-18T10:47:02;100049.96;;;20.91;49.30
65872;BME280;52653;50.080;21.992;2022-10-18T10:49:44;100046.47;;;20.94;50.06
65872;BME280;52653;50.080;21.992;2022-10-18T10:52:18;100041.61;;;21.00;49.58
65872;BME280;52653;50.080;21.992;2022-10-18T10:55:14;100033.88;;;21.06;49.28
65872;BME280;52653;50.080;21.992;2022-10-18T10:58:04;100028.61;;;21.09;49.36
65872;BME280;52653;50.080;21.992;2022-10-18T11:00:39;100025.79;;;21.13;49.11
65872;BME280;52653;50.080;21.992;2022-10-18T11:03:14;100018.54;;;21.11;48.39
65872;BME280;52653;50.080;21.992;2022-10-18T11:05:58;100014.61;;;21.11;48.56
65872;BME280;52653;50.080;21.992;2022-10-18T11:08:34;100013.41;;;21.10;48.79
65872;BME280;52653;50.080;21.992;2022-10-18T11:11:14;100003.64;;;21.08;48.07
65872;BME280;52653;50.080;21.992;2022-10-18T11:13:58;100008.73;;;21.11;48.95
65872;BME280;52653;50.080;21.992;2022-10-18T11:16:57;100002.78;;;21.17;48.98
65872;BME280;52653;50.080;21.992;2022-10-18T11:19:43;99999.15;;;21.24;48.65
65872;BME280;52653;50.080;21.992;2022-10-18T11:22:21;99996.92;;;21.31;48.80
65872;BME280;52653;50.080;21.992;2022-10-18T11:24:54;99991.12;;;21.38;48.53
65872;BME280;52653;50.080;21.992;2022-10-18T11:27:28;99987.92;;;21.42;47.95
65872;BME280;52653;50.080;21.992;2022-10-18T11:30:16;99983.65;;;21.46;48.15
65872;BME280;52653;50.080;21.992;2022-10-18T11:32:59;99974.81;;;21.49;47.37
65872;BME280;52653;50.080;21.992;2022-10-18T11:35:43;99973.92;;;21.44;47.43
65872;BME280;52653;50.080;21.992;2022-10-18T11:38:26;99973.23;;;21.43;48.07
65872;BME280;52653;50.080;21.992;2022-10-18T11:41:19;99966.06;;;21.49;47.87
65872;BME280;52653;50.080;21.992;2022-10-18T11:43:58;99966.85;;;21.56;48.11
65872;BME280;52653;50.080;21.992;2022-10-18T11:46:46;99961.29;;;21.65;48.32
65872;BME280;52653;50.080;21.992;2022-10-18T11:49:36;99955.00;;;21.75;48.02
65872;BME280;52653;50.080;21.992;2022-10-18T11:52:14;99951.34;;;21.81;47.68
65872;BME280;52653;50.080;21.992;2022-10-18T11:55:01;99944.98;;;21.88;47.91
65872;BME280;52653;50.080;21.992;2022-10-18T11:57:42;99938.69;;;21.97;48.07
65872;BME280;52653;50.080;21.992;2022-10-18T12:00:32;99939.96;;;22.05;46.97
65872;BME280;52653;50.080;21.992;2022-10-18T12:03:21;99938.39;;;22.04;47.44
65872;BME280;52653;50.080;21.992;2022-10-18T12:05:56;99932.98;;;22.06;46.87
65872;BME280;52653;50.080;21.992;2022-10-18T12:08:35;99927.73;;;22.08;47.33
65872;BME280;52653;50.080;21.992;2022-10-18T12:11:14;99922.91;;;22.16;47.34
65872;BME280;52653;50.080;21.992;2022-10-18T12:13:50;99918.84;;;22.19;46.68
65872;BME280;52653;50.080;21.992;2022-10-18T12:16:24;99919.73;;;22.23;46.17
65872;BME280;52653;50.080;21.992;2022-10-18T12:19:21;99908.25;;;22.24;46.00
65872;BME280;52653;50.080;21.992;2022-10-18T12:22:04;99902.44;;;22.26;45.94
65872;BME280;52653;50.080;21.992;2022-10-18T12:24:39;99899.06;;;22.29;45.51
65872;BME280;52653;50.080;21.992;2022-10-18T12:27:13;99894.84;;;22.31;45.17
65872;BME280;52653;50.080;21.992;2022-10-18T12:29:51;99894.77;;;22.34;45.56
65872;BME280;52653;50.080;21.992;2022-10-18T12:32:28;99893.44;;;22.35;45.39
65872;BME280;52653;50.080;21.992;2022-10-18T12:35:05;99890.34;;;22.32;44.91
65872;BME280;52653;50.080;21.992;2022-10-18T12:37:58;99888.41;;;22.32;44.86
65872;BME280;52653;50.080;21.992;2022-10-18T12:40:39;99885.17;;;22.28;44.76
65872;BME280;52653;50.080;21.992;2022-10-18T12:43:20;99880.16;;;22.25;44.57
65872;BME280;52653;50.080;21.992;2022-10-18T12:45:55;99878.88;;;22.21;44.25
65872;BME280;52653;50.080;21.992;2022-10-18T12:48:33;99874.60;;;22.17;44.12
65872;BME280;52653;50.080;21.992;2022-10-18T12:51:14;99871.25;;;22.16;44.45
65872;BME280;52653;50.080;21.992;2022-10-18T12:53:51;99868.23;;;22.16;44.83
65872;BME280;52653;50.080;21.992;2022-10-18T12:56:40;99869.20;;;22.14;44.34
65872;BME280;52653;50.080;21.992;2022-10-18T13:02:35;99857.56;;;22.11;44.24
65872;BME280;52653;50.080;21.992;2022-10-18T13:08:37;99851.13;;;22.11;45.39
65872;BME280;52653;50.080;21.992;2022-10-18T13:11:31;99848.97;;;22.15;45.58
65872;BME280;52653;50.080;21.992;2022-10-18T13:14:33;99844.27;;;22.20;45.43
65872;BME280;52653;50.080;21.992;2022-10-18T13:17:33;99843.31;;;22.21;45.39
65872;BME280;52653;50.080;21.992;2022-10-18T13:20:18;99838.89;;;22.20;45.08
65872;BME280;52653;50.080;21.992;2022-10-18T13:23:04;99837.80;;;22.17;44.90
65872;BME280;52653;50.080;21.992;2022-10-18T13:25:51;99837.63;;;22.13;44.82
65872;BME280;52653;50.080;21.992;2022-10-18T13:28:32;99833.02;;;22.12;45.36
65872;BME280;52653;50.080;21.992;2022-10-18T13:31:13;99834.33;;;22.15;45.81
65872;BME280;52653;50.080;21.992;2022-10-18T13:33:49;99833.46;;;22.14;45.56
65872;BME280;52653;50.080;21.992;2022-10-18T13:36:24;99833.10;;;22.14;45.77
65872;BME280;52653;50.080;21.992;2022-10-18T13:39:04;99826.64;;;22.15;45.73